createdAt,value
2023-08-16T00:01:29.458Z,9.57
2023-08-16T00:03:56.395Z,11.65
2023-08-16T00:06:24.159Z,9.45
2023-08-16T00:08:54.353Z,11.02
2023-08-16T00:11:21.254Z,10.25
2023-08-16T00:13:48.099Z,9.85
2023-08-16T00:16:14.889Z,10.05
2023-08-16T00:18:41.724Z,9.57
2023-08-16T00:21:08.468Z,11.40
2023-08-16T00:23:35.252Z,10.27
2023-08-16T00:26:02.058Z,15.63
2023-08-16T00:28:28.820Z,10.10
2023-08-16T00:30:55.688Z,10.88
2023-08-16T00:33:22.963Z,11.05
2023-08-16T00:35:52.220Z,14.00
2023-08-16T00:38:19.336Z,10.25
2023-08-16T00:40:50.204Z,12.00
2023-08-16T00:43:17.415Z,11.35
2023-08-16T00:45:45.996Z,11.05
2023-08-16T00:48:14.357Z,12.07
2023-08-16T00:50:41.397Z,13.52
2023-08-16T00:53:09.647Z,19.10
2023-08-16T00:55:37.053Z,12.52
2023-08-16T00:58:04.078Z,12.35
2023-08-16T01:00:31.041Z,15.35
2023-08-16T01:02:58.107Z,13.15
2023-08-16T01:05:25.214Z,11.15
2023-08-16T01:07:52.937Z,12.88
2023-08-16T01:10:24.823Z,11.63
2023-08-16T01:12:57.040Z,10.55
2023-08-16T01:15:30.977Z,14.45
2023-08-16T01:18:00.489Z,11.32
2023-08-16T01:20:30.345Z,12.50
2023-08-16T01:23:05.437Z,10.23
2023-08-16T01:25:54.716Z,13.32
2023-08-16T01:28:22.613Z,11.70
2023-08-16T01:30:50.787Z,11.85
2023-08-16T01:33:17.665Z,11.52
2023-08-16T01:35:45.433Z,12.15
2023-08-16T01:38:14.364Z,10.35
2023-08-16T01:41:00.556Z,12.02
2023-08-16T01:43:28.236Z,12.60
2023-08-16T01:45:55.963Z,11.38
2023-08-16T01:48:24.374Z,11.15
2023-08-16T01:50:51.369Z,10.90
2023-08-16T01:53:19.575Z,13.27
2023-08-16T01:55:46.672Z,12.50
2023-08-16T01:58:13.523Z,9.55
2023-08-16T02:00:40.395Z,9.80
2023-08-16T02:03:07.245Z,9.77
2023-08-16T02:05:34.199Z,13.30
2023-08-16T02:08:01.033Z,11.98
2023-08-16T02:10:27.807Z,13.93
2023-08-16T02:12:54.579Z,12.38
2023-08-16T02:15:21.682Z,14.95
2023-08-16T02:17:48.558Z,15.80
2023-08-16T02:20:15.407Z,14.98
2023-08-16T02:22:43.534Z,16.25
2023-08-16T02:25:12.368Z,14.73
2023-08-16T02:27:39.589Z,14.68
2023-08-16T02:30:06.894Z,13.93
2023-08-16T02:32:37.917Z,12.15
2023-08-16T02:35:05.134Z,14.60
2023-08-16T02:37:32.005Z,13.20
2023-08-16T02:39:58.781Z,16.02
2023-08-16T02:42:25.594Z,16.60
2023-08-16T02:44:52.419Z,14.52
2023-08-16T02:47:19.250Z,17.60
2023-08-16T02:49:46.194Z,20.58
2023-08-16T02:52:13.544Z,18.05
2023-08-16T02:54:40.902Z,21.42
2023-08-16T02:57:07.681Z,19.40
2023-08-16T02:59:47.683Z,17.50
2023-08-16T03:02:15.619Z,20.60
2023-08-16T03:04:42.490Z,20.83
2023-08-16T03:07:10.770Z,20.60
2023-08-16T03:09:39.029Z,19.95
2023-08-16T03:12:07.166Z,21.15
2023-08-16T03:14:34.182Z,19.33
2023-08-16T03:17:01.569Z,21.35
2023-08-16T03:19:28.404Z,17.98
2023-08-16T03:21:57.023Z,21.35
2023-08-16T03:24:24.070Z,15.32
2023-08-16T03:26:51.516Z,18.90
2023-08-16T03:29:18.992Z,19.70
2023-08-16T03:31:46.114Z,19.75
2023-08-16T03:34:12.952Z,24.30
2023-08-16T03:36:39.737Z,18.17
2023-08-16T03:39:06.674Z,17.42
2023-08-16T03:41:35.087Z,17.10
2023-08-16T03:44:02.801Z,19.45
2023-08-16T03:46:29.693Z,18.20
2023-08-16T03:48:56.984Z,19.27
2023-08-16T03:51:23.740Z,17.45
2023-08-16T03:53:50.689Z,19.98
2023-08-16T03:56:17.517Z,18.88
2023-08-16T03:58:44.384Z,19.95
2023-08-16T04:01:11.155Z,19.25
2023-08-16T04:03:38.038Z,17.75
2023-08-16T04:06:11.587Z,17.50
2023-08-16T04:08:41.362Z,18.75
2023-08-16T04:11:08.217Z,19.10
2023-08-16T04:13:35.470Z,16.08
2023-08-16T04:16:02.330Z,19.58
2023-08-16T04:18:29.870Z,20.35
2023-08-16T04:20:57.613Z,16.70
2023-08-16T04:23:24.987Z,20.13
2023-08-16T04:25:51.839Z,18.25
2023-08-16T04:28:18.829Z,15.95
2023-08-16T04:30:45.709Z,14.75
2023-08-16T04:33:12.884Z,18.85
2023-08-16T04:35:39.674Z,20.05
2023-08-16T04:38:07.107Z,16.98
2023-08-16T04:40:33.972Z,17.77
2023-08-16T04:43:00.783Z,20.27
2023-08-16T04:45:27.516Z,17.48
2023-08-16T04:47:54.401Z,18.70
2023-08-16T04:50:21.211Z,16.42
2023-08-16T04:52:47.990Z,18.30
2023-08-16T04:55:16.007Z,21.05
2023-08-16T04:57:42.781Z,21.10
2023-08-16T05:00:10.606Z,21.02
2023-08-16T05:02:37.504Z,17.08
2023-08-16T05:05:05.375Z,17.08
2023-08-16T05:07:32.259Z,17.88
2023-08-16T05:09:59.015Z,19.48
2023-08-16T05:12:25.747Z,18.05
2023-08-16T05:14:52.520Z,19.33
2023-08-16T05:17:19.300Z,21.13
2023-08-16T05:19:46.154Z,21.25
2023-08-16T05:22:12.951Z,20.52
2023-08-16T05:24:39.657Z,22.52
2023-08-16T05:27:12.858Z,23.23
2023-08-16T05:29:40.982Z,20.70
2023-08-16T05:32:08.155Z,20.77
2023-08-16T05:34:35.034Z,21.50
2023-08-16T05:37:01.896Z,18.90
2023-08-16T05:39:28.911Z,19.70
2023-08-16T05:41:55.641Z,22.00
2023-08-16T05:44:22.433Z,21.33
2023-08-16T05:46:49.367Z,21.95
2023-08-16T05:49:16.207Z,23.70
2023-08-16T05:51:42.936Z,20.40
2023-08-16T05:54:09.749Z,27.65
2023-08-16T05:56:36.550Z,25.10
2023-08-16T05:59:03.411Z,23.52
2023-08-16T06:01:30.240Z,20.55
2023-08-16T06:03:57.153Z,24.55
2023-08-16T06:06:24.148Z,22.65
2023-08-16T06:08:50.953Z,23.83
2023-08-16T06:11:17.748Z,24.30
2023-08-16T06:13:44.557Z,23.33
2023-08-16T06:16:11.720Z,22.98
2023-08-16T06:18:38.581Z,23.88
2023-08-16T06:21:05.324Z,26.02
2023-08-16T06:23:32.398Z,24.67
2023-08-16T06:25:59.229Z,25.15
2023-08-16T06:28:26.079Z,25.02
2023-08-16T06:30:53.172Z,22.95
2023-08-16T06:33:19.965Z,26.02
2023-08-16T06:35:47.498Z,25.73
2023-08-16T06:38:14.709Z,24.75
2023-08-16T06:40:41.622Z,25.20
2023-08-16T06:43:08.494Z,23.88
2023-08-16T06:45:35.271Z,21.75
2023-08-16T06:48:04.503Z,24.65
2023-08-16T06:50:31.574Z,23.23
2023-08-16T06:52:58.470Z,24.67
2023-08-16T06:55:25.233Z,22.33
2023-08-16T06:57:52.045Z,20.50
2023-08-16T07:00:19.010Z,23.02
2023-08-16T07:02:45.921Z,19.88
2023-08-16T07:05:13.614Z,19.77
2023-08-16T07:07:40.538Z,20.38
2023-08-16T07:10:08.593Z,21.92
2023-08-16T07:12:35.782Z,17.35
2023-08-16T07:15:03.928Z,20.92
2023-08-16T07:17:30.892Z,20.35
2023-08-16T07:19:57.709Z,18.23
2023-08-16T07:22:28.139Z,16.98
2023-08-16T07:24:55.433Z,15.00
2023-08-16T07:27:22.278Z,11.95
2023-08-16T07:29:49.289Z,14.05
2023-08-16T07:32:16.113Z,14.77
2023-08-16T07:34:44.436Z,15.32
2023-08-16T07:37:11.676Z,12.82
2023-08-16T07:39:38.528Z,12.88
2023-08-16T07:42:06.656Z,17.15
2023-08-16T07:44:36.567Z,11.18
2023-08-16T07:47:03.999Z,12.60
2023-08-16T07:49:30.956Z,12.98
2023-08-16T07:51:58.395Z,11.93
2023-08-16T07:54:25.973Z,13.63
2023-08-16T07:56:53.840Z,10.60
2023-08-16T07:59:20.672Z,11.85
2023-08-16T08:01:47.908Z,8.57
2023-08-16T08:04:15.041Z,9.00
2023-08-16T08:06:42.542Z,4.93
2023-08-16T08:09:09.503Z,4.50
2023-08-16T08:11:38.601Z,9.88
2023-08-16T08:14:05.754Z,4.72
2023-08-16T08:16:32.932Z,8.27
2023-08-16T08:18:59.812Z,6.15
2023-08-16T08:21:26.785Z,7.43
2023-08-16T08:23:53.591Z,5.43
2023-08-16T08:26:20.854Z,3.60
2023-08-16T08:28:47.668Z,4.30
2023-08-16T08:31:14.727Z,5.18
2023-08-16T08:33:41.657Z,3.95
2023-08-16T08:36:08.556Z,4.32
2023-08-16T08:38:36.347Z,6.10
2023-08-16T08:41:03.242Z,5.03
2023-08-16T08:43:53.549Z,4.97
2023-08-16T08:46:25.526Z,3.92
2023-08-16T08:48:53.198Z,4.72
2023-08-16T08:51:20.046Z,3.20
2023-08-16T08:53:46.907Z,4.18
2023-08-16T08:56:17.208Z,3.88
2023-08-16T08:58:48.828Z,5.53
2023-08-16T09:01:21.386Z,5.60
2023-08-16T09:03:49.995Z,7.97
2023-08-16T09:06:16.870Z,5.15
2023-08-16T09:08:45.036Z,4.60
2023-08-16T09:11:12.142Z,5.93
2023-08-16T09:13:38.952Z,5.70
2023-08-16T09:16:05.891Z,4.75
2023-08-16T09:18:32.943Z,6.15
2023-08-16T09:21:00.984Z,3.75
2023-08-16T09:23:27.961Z,5.25
2023-08-16T09:25:54.868Z,5.28
2023-08-16T09:28:21.899Z,5.53
2023-08-16T09:30:48.685Z,3.75
2023-08-16T09:33:18.677Z,4.20
2023-08-16T09:35:51.406Z,6.03
2023-08-16T09:38:38.053Z,6.00
2023-08-16T09:41:14.555Z,6.80
2023-08-16T09:43:41.506Z,6.22
2023-08-16T09:46:08.686Z,5.55
2023-08-16T09:48:35.943Z,6.18
2023-08-16T09:51:10.450Z,7.47
2023-08-16T09:53:48.797Z,3.33
2023-08-16T09:58:46.709Z,4.88
2023-08-16T10:03:59.912Z,5.03
2023-08-16T10:09:05.511Z,5.63
2023-08-16T10:11:36.762Z,5.10
2023-08-16T10:16:32.716Z,4.78
2023-08-16T10:19:01.953Z,5.25
2023-08-16T10:21:31.644Z,5.32
2023-08-16T10:23:59.435Z,4.60
2023-08-16T10:26:31.521Z,4.75
2023-08-16T10:31:46.169Z,3.58
2023-08-16T10:34:15.500Z,5.05
2023-08-16T10:36:43.352Z,3.67
2023-08-16T10:39:21.902Z,2.75
2023-08-16T10:41:50.976Z,3.95
2023-08-16T10:44:24.806Z,3.55
2023-08-16T10:46:52.248Z,3.50
2023-08-16T10:49:19.514Z,5.18
2023-08-16T10:51:55.218Z,4.35
2023-08-16T10:54:35.780Z,5.05
2023-08-16T10:57:04.041Z,4.68
2023-08-16T10:59:40.913Z,6.80
2023-08-16T11:02:16.356Z,3.80
2023-08-16T11:04:43.796Z,3.50
2023-08-16T11:07:19.654Z,4.22
2023-08-16T11:09:46.618Z,4.28
2023-08-16T11:12:15.711Z,2.72
2023-08-16T11:14:44.901Z,5.15
2023-08-16T11:17:16.007Z,3.00
2023-08-16T11:22:12.904Z,2.78
2023-08-16T11:24:39.975Z,3.40
2023-08-16T11:27:07.789Z,3.85
2023-08-16T11:29:35.332Z,4.88
2023-08-16T11:32:02.230Z,3.90
2023-08-16T11:34:33.107Z,2.28
2023-08-16T11:37:00.042Z,2.47
2023-08-16T11:39:28.661Z,4.22
2023-08-16T11:41:55.609Z,3.17
2023-08-16T11:44:25.535Z,3.20
2023-08-16T11:46:52.922Z,3.60
2023-08-16T11:49:23.398Z,3.15
2023-08-16T11:51:50.296Z,4.50
2023-08-16T11:54:22.974Z,3.72
2023-08-16T11:56:51.019Z,3.20
2023-08-16T11:59:27.566Z,4.80
2023-08-16T12:01:56.552Z,3.35
2023-08-16T12:04:24.781Z,3.30
2023-08-16T12:06:51.787Z,2.83
2023-08-16T12:09:20.769Z,3.83
2023-08-16T12:11:52.971Z,2.20
2023-08-16T12:14:20.146Z,6.50
2023-08-16T12:16:46.972Z,3.78
2023-08-16T12:19:21.765Z,2.20
2023-08-16T12:21:48.665Z,3.17
2023-08-16T12:24:15.469Z,2.30
2023-08-16T12:26:42.306Z,3.55
2023-08-16T12:29:09.020Z,1.60
2023-08-16T12:31:36.135Z,3.13
2023-08-16T12:34:03.297Z,2.47
2023-08-16T12:36:30.279Z,3.30
2023-08-16T12:38:57.057Z,4.03
2023-08-16T12:41:23.936Z,2.95
2023-08-16T12:43:52.798Z,2.35
2023-08-16T12:46:19.646Z,2.10
2023-08-16T12:48:47.281Z,2.75
2023-08-16T12:51:17.747Z,3.58
2023-08-16T12:53:45.784Z,4.43
2023-08-16T12:56:14.096Z,4.32
2023-08-16T12:58:56.102Z,2.42
2023-08-16T13:01:24.030Z,3.42
2023-08-16T13:06:30.919Z,3.83
2023-08-16T13:11:33.912Z,3.47
2023-08-16T13:14:01.744Z,1.85
2023-08-16T13:16:30.661Z,3.17
2023-08-16T13:24:37.681Z,2.40
2023-08-16T13:27:07.490Z,3.75
2023-08-16T13:34:57.806Z,2.83
2023-08-16T13:37:27.854Z,2.22
2023-08-16T13:40:20.297Z,2.95
2023-08-16T13:45:19.429Z,1.60
2023-08-16T13:47:46.587Z,2.33
2023-08-16T13:50:13.332Z,3.58
2023-08-16T13:52:40.106Z,4.95
2023-08-16T13:55:07.435Z,2.97
2023-08-16T13:57:34.186Z,3.33
2023-08-16T14:00:00.929Z,4.47
2023-08-16T14:02:28.163Z,2.20
2023-08-16T14:04:55.342Z,3.70
2023-08-16T14:07:22.155Z,3.38
2023-08-16T14:09:48.954Z,2.28
2023-08-16T14:12:15.771Z,2.58
2023-08-16T14:14:42.539Z,2.97
2023-08-16T14:17:09.472Z,3.00
2023-08-16T14:19:36.505Z,2.92
2023-08-16T14:22:03.241Z,2.75
2023-08-16T14:24:30.069Z,2.95
2023-08-16T14:26:56.857Z,5.03
2023-08-16T14:29:23.696Z,2.15
2023-08-16T14:31:50.472Z,6.85
2023-08-16T14:34:17.306Z,4.78
2023-08-16T14:36:44.699Z,3.75
2023-08-16T14:39:11.531Z,4.60
2023-08-16T14:41:38.575Z,3.10
2023-08-16T14:44:05.560Z,4.03
2023-08-16T14:46:32.509Z,2.55
2023-08-16T14:48:59.303Z,3.17
2023-08-16T14:51:26.087Z,2.72
2023-08-16T14:53:52.845Z,3.38
2023-08-16T14:56:19.704Z,3.75
2023-08-16T14:58:46.708Z,2.83
2023-08-16T15:01:13.569Z,2.15
2023-08-16T15:03:40.543Z,2.13
2023-08-16T15:06:07.343Z,3.92
2023-08-16T15:08:39.351Z,3.47
2023-08-16T15:11:20.148Z,3.55
2023-08-16T15:13:47.246Z,3.67
2023-08-16T15:16:15.517Z,2.60
2023-08-16T15:18:42.571Z,3.65
2023-08-16T15:21:09.535Z,3.45
2023-08-16T15:23:38.117Z,2.63
2023-08-16T15:26:07.191Z,3.25
2023-08-16T15:28:36.744Z,4.47
2023-08-16T15:31:04.588Z,3.72
2023-08-16T15:33:31.396Z,2.47
2023-08-16T15:35:58.437Z,4.28
2023-08-16T15:38:45.159Z,4.53
2023-08-16T15:41:12.860Z,3.95
2023-08-16T15:43:40.005Z,4.95
2023-08-16T15:46:08.344Z,4.55
2023-08-16T15:48:35.819Z,2.25
2023-08-16T15:51:03.078Z,5.57
2023-08-16T15:53:29.893Z,4.10
2023-08-16T15:55:57.060Z,4.50
2023-08-16T15:58:25.399Z,4.28
2023-08-16T16:00:57.714Z,4.90
2023-08-16T16:03:24.610Z,2.97
2023-08-16T16:05:51.457Z,3.13
2023-08-16T16:08:18.868Z,4.35
2023-08-16T16:10:47.645Z,4.40
2023-08-16T16:13:16.377Z,2.30
2023-08-16T16:15:43.643Z,5.03
2023-08-16T16:18:10.548Z,4.38
2023-08-16T16:20:37.500Z,3.60
2023-08-16T16:23:04.407Z,2.63
2023-08-16T16:25:31.389Z,4.57
2023-08-16T16:27:58.278Z,2.25
2023-08-16T16:30:25.164Z,5.97
2023-08-16T16:32:51.983Z,3.72
2023-08-16T16:35:18.889Z,2.80
2023-08-16T16:37:47.558Z,4.15
2023-08-16T16:40:14.699Z,5.13
2023-08-16T16:42:45.414Z,6.55
2023-08-16T16:45:13.060Z,2.75
2023-08-16T16:47:40.386Z,3.53
2023-08-16T16:50:08.323Z,5.45
2023-08-16T16:52:36.619Z,3.63
2023-08-16T16:55:05.027Z,5.55
2023-08-16T16:57:33.565Z,3.92
2023-08-16T17:00:02.167Z,4.22
2023-08-16T17:02:29.082Z,4.40
2023-08-16T17:04:56.003Z,4.00
2023-08-16T17:07:23.005Z,4.10
2023-08-16T17:09:49.934Z,4.13
2023-08-16T17:12:16.792Z,3.42
2023-08-16T17:14:43.530Z,4.22
2023-08-16T17:17:11.135Z,5.60
2023-08-16T17:19:37.914Z,6.63
2023-08-16T17:22:06.248Z,9.38
2023-08-16T17:24:33.340Z,4.05
2023-08-16T17:27:00.274Z,3.65
2023-08-16T17:29:27.110Z,3.50
2023-08-16T17:31:54.169Z,6.47
2023-08-16T17:34:21.614Z,4.22
2023-08-16T17:36:48.592Z,3.15
2023-08-16T17:39:15.342Z,4.00
2023-08-16T17:41:42.180Z,4.32
2023-08-16T17:44:09.509Z,4.13
2023-08-16T17:46:36.460Z,4.63
2023-08-16T17:49:03.360Z,2.20
2023-08-16T17:51:30.234Z,4.70
2023-08-16T17:53:57.076Z,3.50
2023-08-16T17:56:23.913Z,3.92
2023-08-16T17:58:51.603Z,4.82
2023-08-16T18:01:18.515Z,2.85
2023-08-16T18:03:46.986Z,4.10
2023-08-16T18:06:13.973Z,4.35
2023-08-16T18:08:41.402Z,3.13
2023-08-16T18:11:08.293Z,5.20
2023-08-16T18:13:37.927Z,4.00
2023-08-16T18:16:05.149Z,3.47
2023-08-16T18:18:31.920Z,5.53
2023-08-16T18:20:58.746Z,3.25
2023-08-16T18:23:25.617Z,3.40
2023-08-16T18:25:53.041Z,6.20
2023-08-16T18:28:23.373Z,4.60
2023-08-16T18:30:50.474Z,5.07
2023-08-16T18:33:17.782Z,3.50
2023-08-16T18:35:44.661Z,6.10
2023-08-16T18:38:11.519Z,2.80
2023-08-16T18:40:38.484Z,3.60
2023-08-16T18:43:05.220Z,4.10
2023-08-16T18:45:32.038Z,4.10
2023-08-16T18:47:58.847Z,4.50
2023-08-16T18:50:27.554Z,4.35
2023-08-16T18:52:56.545Z,6.30
2023-08-16T18:55:23.521Z,6.57
2023-08-16T18:57:50.257Z,5.13
2023-08-16T19:00:17.352Z,5.80
2023-08-16T19:02:44.223Z,4.43
2023-08-16T19:05:11.099Z,2.50
2023-08-16T19:07:37.943Z,6.75
2023-08-16T19:10:05.199Z,4.78
2023-08-16T19:12:31.980Z,6.95
2023-08-16T19:14:58.875Z,2.90
2023-08-16T19:17:25.867Z,6.25
2023-08-16T19:19:54.123Z,3.83
2023-08-16T19:22:20.969Z,5.07
2023-08-16T19:24:47.794Z,3.13
2023-08-16T19:27:14.874Z,3.33
2023-08-16T19:29:41.698Z,3.35
2023-08-16T19:32:08.955Z,4.45
2023-08-16T19:34:35.723Z,6.80
2023-08-16T19:37:02.534Z,4.00
2023-08-16T19:39:29.727Z,6.35
2023-08-16T19:41:56.624Z,6.95
2023-08-16T19:44:23.575Z,6.60
2023-08-16T19:46:50.297Z,4.13
2023-08-16T19:49:17.059Z,6.15
2023-08-16T19:51:43.897Z,5.50
2023-08-16T19:54:10.661Z,2.88
2023-08-16T19:56:38.654Z,9.57
2023-08-16T19:59:05.470Z,5.32
2023-08-16T20:01:32.450Z,4.97
2023-08-16T20:03:59.786Z,8.00
2023-08-16T20:06:26.865Z,5.60
2023-08-16T20:08:53.638Z,5.90
2023-08-16T20:11:20.438Z,5.10
2023-08-16T20:13:47.205Z,7.13
2023-08-16T20:16:14.628Z,6.32
2023-08-16T20:18:42.228Z,4.32
2023-08-16T20:21:10.035Z,7.03
2023-08-16T20:23:36.890Z,6.68
2023-08-16T20:26:03.625Z,4.93
2023-08-16T20:28:30.415Z,5.97
2023-08-16T20:30:57.207Z,4.45
2023-08-16T20:33:24.066Z,8.68
2023-08-16T20:35:50.984Z,7.80
2023-08-16T20:38:17.872Z,5.25
2023-08-16T20:40:44.677Z,7.20
2023-08-16T20:43:11.616Z,7.05
2023-08-16T20:45:38.887Z,5.40
2023-08-16T20:48:06.330Z,6.13
2023-08-16T20:50:33.738Z,6.32
2023-08-16T20:53:00.509Z,5.90
2023-08-16T20:55:27.377Z,5.85
2023-08-16T20:57:54.126Z,3.85
2023-08-16T21:00:20.940Z,5.43
2023-08-16T21:02:47.755Z,7.70
2023-08-16T21:05:14.666Z,4.38
2023-08-16T21:07:41.571Z,4.10
2023-08-16T21:10:08.656Z,5.32
2023-08-16T21:12:35.483Z,5.90
2023-08-16T21:15:02.270Z,5.40
2023-08-16T21:17:29.350Z,6.05
2023-08-16T21:19:56.285Z,4.55
2023-08-16T21:22:23.189Z,7.28
2023-08-16T21:24:49.955Z,5.07
2023-08-16T21:27:16.724Z,7.72
2023-08-16T21:29:43.514Z,5.47
2023-08-16T21:32:10.304Z,4.60
2023-08-16T21:34:37.046Z,7.75
2023-08-16T21:37:03.945Z,4.85
2023-08-16T21:39:30.749Z,4.47
2023-08-16T21:41:57.500Z,4.88
2023-08-16T21:44:24.326Z,4.47
2023-08-16T21:46:51.255Z,4.00
2023-08-16T21:49:18.291Z,3.55
2023-08-16T21:51:45.113Z,5.40
2023-08-16T21:54:12.025Z,4.70
2023-08-16T21:56:38.934Z,6.25
2023-08-16T21:59:05.771Z,9.35
2023-08-16T22:01:32.597Z,5.47
2023-08-16T22:03:59.471Z,5.03
2023-08-16T22:06:26.291Z,5.68
2023-08-16T22:08:53.106Z,3.08
2023-08-16T22:11:20.763Z,6.30
2023-08-16T22:13:47.686Z,4.72
2023-08-16T22:16:14.669Z,4.18
2023-08-16T22:18:41.791Z,3.95
2023-08-16T22:21:10.647Z,3.58
2023-08-16T22:23:37.955Z,5.95
2023-08-16T22:26:07.606Z,4.57
2023-08-16T22:28:34.798Z,4.28
2023-08-16T22:31:01.690Z,3.92
2023-08-16T22:33:28.580Z,3.58
2023-08-16T22:35:55.288Z,6.05
2023-08-16T22:38:22.300Z,4.68
2023-08-16T22:40:49.118Z,5.10
2023-08-16T22:43:15.844Z,3.25
2023-08-16T22:45:42.815Z,8.18
2023-08-16T22:48:09.519Z,6.50
2023-08-16T22:50:36.372Z,5.35
2023-08-16T22:53:03.166Z,7.00
2023-08-16T22:55:29.975Z,7.57
2023-08-16T22:57:56.695Z,8.77
2023-08-16T23:00:23.873Z,6.55
2023-08-16T23:02:50.716Z,4.53
2023-08-16T23:05:17.576Z,5.13
2023-08-16T23:07:44.344Z,6.85
2023-08-16T23:10:11.141Z,6.35
2023-08-16T23:12:37.858Z,7.97
2023-08-16T23:15:04.988Z,6.35
2023-08-16T23:17:31.860Z,6.60
2023-08-16T23:19:58.697Z,9.77
2023-08-16T23:22:25.810Z,9.40
2023-08-16T23:24:52.606Z,7.93
2023-08-16T23:27:19.494Z,9.50
2023-08-16T23:29:46.296Z,4.55
2023-08-16T23:32:13.033Z,7.50
2023-08-16T23:34:39.931Z,6.88
2023-08-16T23:37:06.808Z,7.45
2023-08-16T23:39:34.039Z,6.18
2023-08-16T23:42:01.162Z,6.88
2023-08-16T23:44:28.247Z,9.23
2023-08-16T23:46:55.185Z,5.93
2023-08-16T23:49:22.093Z,8.35
2023-08-16T23:51:49.555Z,7.00
2023-08-16T23:54:16.456Z,8.15
2023-08-16T23:56:43.366Z,10.57
2023-08-16T23:59:10.326Z,10.65
